Varadero, Cuba
Current Conditions -  °F | °C
As of 10:51 PM on Tuesday 21 Oct 2014 (Local Time) from MUVR Reporting Station
Scattered Clouds Scattered Clouds  
Wind Chill: 72°   Ceiling: Unl
Heat Index: 72°   Visibility: 6mi
Dew Point: 68°   Wind: 2mph
Humidity: 88%   Direction: NA
Pressure: 29.97"   Gusts: NA
Location:  23.12°N, 81.36°W
Report Text: MUVR 220251Z VRB02KT 9000 SCT020 22/20 Q1015
Loading
Personal Weather Stations






























Interactive Weather Map
Tropical Storm Tracking
New forecast layout! Learn more

10-Day Weather Forecast

Advertisements
Track Severe Weather on mobile